MDL501 WIBB-WALL
Flight info
| Callsign | MDL501 |
|---|---|
| Flight time | N/A |
| Altitude | 35000 |
| Route | TAROS R469 BOBAG M630 JUNHA M774 OBDOS L504 OSRUT W36 ELANG DCT BAHAU |
| Aircraft | A20N/M-SDE2E3FGHIRWXY/LB1 |
Departure
| Time | N/A |
|---|---|
| Airport | Sultan Syarif Kasim II International Airport / Roesmin Nurjadin AFB (WIBB) |
Arrival
| Time | 2026-04-19 06:06 |
|---|---|
| Airport | Sultan Aji Muhammad Sulaiman Sepinggan International Airport (WALL) |
| Time | Latitude | Longitude | Altitude | Speed | Heading |
|---|---|---|---|---|---|
| 2026-04-19 03:36 | 0.46410 | 101.82506 | 14914 ft | 359 kts | 66° |
| 2026-04-19 03:36 | 0.47379 | 101.84813 | 15592 ft | 365 kts | 67° |
| 2026-04-19 03:36 | 0.48357 | 101.87169 | 16259 ft | 370 kts | 67° |
| 2026-04-19 03:36 | 0.49344 | 101.89553 | 16972 ft | 374 kts | 67° |
| 2026-04-19 03:37 | 0.50308 | 101.91975 | 17695 ft | 378 kts | 71° |
| 2026-04-19 03:37 | 0.51033 | 101.94495 | 18405 ft | 381 kts | 77° |
| 2026-04-19 03:37 | 0.51545 | 101.97104 | 19067 ft | 385 kts | 81° |
| 2026-04-19 03:37 | 0.51925 | 101.99768 | 19706 ft | 390 kts | 83° |
| 2026-04-19 03:38 | 0.52240 | 102.02467 | 20335 ft | 394 kts | 83° |
| 2026-04-19 03:38 | 0.52540 | 102.05196 | 20961 ft | 398 kts | 83° |
| 2026-04-19 03:38 | 0.52858 | 102.07948 | 21578 ft | 402 kts | 82° |
| 2026-04-19 03:38 | 0.53361 | 102.10706 | 22183 ft | 406 kts | 77° |
| 2026-04-19 03:39 | 0.54133 | 102.13424 | 22768 ft | 410 kts | 72° |
| 2026-04-19 03:39 | 0.55093 | 102.16111 | 23332 ft | 414 kts | 69° |
| 2026-04-19 03:39 | 0.56148 | 102.18769 | 23885 ft | 418 kts | 68° |
| 2026-04-19 03:39 | 0.57258 | 102.21464 | 24437 ft | 422 kts | 68° |
| 2026-04-19 03:40 | 0.58373 | 102.24194 | 24987 ft | 425 kts | 68° |
| 2026-04-19 03:40 | 0.59467 | 102.26950 | 25518 ft | 429 kts | 69° |
| 2026-04-19 03:40 | 0.60536 | 102.29734 | 26029 ft | 432 kts | 70° |
| 2026-04-19 03:40 | 0.61582 | 102.32556 | 26530 ft | 436 kts | 70° |
| 2026-04-19 03:41 | 0.62619 | 102.35401 | 27004 ft | 439 kts | 70° |
| 2026-04-19 03:41 | 0.63653 | 102.38266 | 27458 ft | 442 kts | 70° |
| 2026-04-19 03:41 | 0.64691 | 102.41156 | 27967 ft | 444 kts | 70° |
| 2026-04-19 03:41 | 0.65724 | 102.44052 | 28467 ft | 445 kts | 70° |
| 2026-04-19 03:42 | 0.66781 | 102.46970 | 28892 ft | 448 kts | 70° |
| 2026-04-19 03:42 | 0.67840 | 102.49905 | 29185 ft | 453 kts | 70° |
| 2026-04-19 03:42 | 0.68748 | 102.52429 | 29400 ft | 458 kts | 70° |
| 2026-04-19 03:42 | 0.69543 | 102.55001 | 29650 ft | 462 kts | 77° |
| 2026-04-19 03:43 | 0.70022 | 102.58174 | 30029 ft | 464 kts | 86° |
| 2026-04-19 03:43 | 0.69977 | 102.61383 | 30448 ft | 464 kts | 96° |
| 2026-04-19 03:43 | 0.69469 | 102.64556 | 30876 ft | 465 kts | 102° |
| 2026-04-19 03:43 | 0.68695 | 102.67662 | 31303 ft | 464 kts | 105° |
| 2026-04-19 03:44 | 0.67768 | 102.70766 | 31752 ft | 464 kts | 107° |
| 2026-04-19 03:44 | 0.66772 | 102.73818 | 32203 ft | 462 kts | 108° |
| 2026-04-19 03:44 | 0.65739 | 102.76830 | 32680 ft | 460 kts | 109° |
| 2026-04-19 03:44 | 0.64670 | 102.79843 | 33129 ft | 459 kts | 109° |
| 2026-04-19 03:45 | 0.63591 | 102.82831 | 33473 ft | 459 kts | 109° |
| 2026-04-19 03:45 | 0.62499 | 102.85832 | 33745 ft | 461 kts | 109° |
| 2026-04-19 03:45 | 0.61404 | 102.88829 | 34022 ft | 463 kts | 109° |
| 2026-04-19 03:45 | 0.60308 | 102.91822 | 34343 ft | 463 kts | 109° |
| 2026-04-19 03:46 | 0.59297 | 102.94889 | 34676 ft | 460 kts | 103° |
| 2026-04-19 03:46 | 0.58760 | 102.98011 | 34821 ft | 458 kts | 94° |
| 2026-04-19 03:46 | 0.58738 | 103.01190 | 34889 ft | 461 kts | 84° |
| 2026-04-19 03:47 | 0.60076 | 103.07494 | 34898 ft | 473 kts | 70° |
| 2026-04-19 03:47 | 0.62655 | 103.13587 | 34894 ft | 484 kts | 65° |
| 2026-04-19 03:48 | 0.65556 | 103.19624 | 34870 ft | 478 kts | 64° |
| 2026-04-19 03:48 | 0.68320 | 103.25609 | 34895 ft | 474 kts | 66° |
| 2026-04-19 03:49 | 0.70920 | 103.31627 | 34892 ft | 474 kts | 67° |
| 2026-04-19 03:49 | 0.73493 | 103.37735 | 34883 ft | 483 kts | 67° |
| 2026-04-19 03:50 | 0.76080 | 103.43924 | 34881 ft | 479 kts | 68° |
| 2026-04-19 03:50 | 0.78655 | 103.50018 | 34877 ft | 475 kts | 67° |
| 2026-04-19 03:51 | 0.81231 | 103.56049 | 34895 ft | 472 kts | 67° |
| 2026-04-19 03:51 | 0.83795 | 103.62069 | 34881 ft | 479 kts | 67° |
| 2026-04-19 03:52 | 0.86429 | 103.68256 | 34876 ft | 485 kts | 67° |
| 2026-04-19 03:52 | 0.89050 | 103.74412 | 34882 ft | 485 kts | 67° |
| 2026-04-19 03:53 | 0.91691 | 103.80619 | 34883 ft | 484 kts | 67° |
| 2026-04-19 03:53 | 0.94315 | 103.86781 | 34878 ft | 484 kts | 67° |
| 2026-04-19 03:54 | 0.96875 | 103.92984 | 34875 ft | 484 kts | 72° |
| 2026-04-19 03:54 | 0.98070 | 103.99564 | 34875 ft | 483 kts | 89° |
| 2026-04-19 03:55 | 0.97185 | 104.06159 | 34875 ft | 483 kts | 107° |
| 2026-04-19 03:55 | 0.94293 | 104.12186 | 34875 ft | 483 kts | 125° |
| 2026-04-19 03:56 | 0.89697 | 104.17006 | 34876 ft | 482 kts | 143° |
| 2026-04-19 03:56 | 0.83841 | 104.20173 | 34875 ft | 482 kts | 161° |
| 2026-04-19 03:57 | 0.77266 | 104.21383 | 34881 ft | 484 kts | 179° |
| 2026-04-19 03:57 | 0.70636 | 104.20511 | 34875 ft | 484 kts | 197° |
| 2026-04-19 03:58 | 0.64592 | 104.17641 | 34877 ft | 484 kts | 214° |
| 2026-04-19 03:58 | 0.59717 | 104.13048 | 34875 ft | 485 kts | 232° |
| 2026-04-19 03:59 | 0.56490 | 104.07179 | 34875 ft | 485 kts | 250° |
| 2026-04-19 03:59 | 0.55222 | 104.00598 | 34875 ft | 486 kts | 268° |
| 2026-04-19 04:00 | 0.56036 | 103.93943 | 34875 ft | 486 kts | 286° |
| 2026-04-19 04:00 | 0.58861 | 103.87841 | 34876 ft | 487 kts | 304° |
| 2026-04-19 04:01 | 0.63417 | 103.82900 | 34875 ft | 487 kts | 322° |
| 2026-04-19 04:01 | 0.69274 | 103.79584 | 34875 ft | 487 kts | 340° |
| 2026-04-19 04:01 | 0.72511 | 103.78646 | 34877 ft | 487 kts | 349° |
| 2026-04-19 04:02 | 0.79231 | 103.78314 | 34878 ft | 486 kts | 7° |
| 2026-04-19 04:02 | 0.85725 | 103.80051 | 34878 ft | 486 kts | 25° |
| 2026-04-19 04:03 | 0.91363 | 103.83679 | 34883 ft | 485 kts | 42° |
| 2026-04-19 04:03 | 0.96009 | 103.88547 | 34880 ft | 485 kts | 53° |
| 2026-04-19 04:04 | 0.99214 | 103.94411 | 34874 ft | 484 kts | 71° |
| 2026-04-19 04:04 | 1.00455 | 104.00972 | 34875 ft | 483 kts | 89° |
| 2026-04-19 04:05 | 0.99614 | 104.07583 | 34875 ft | 483 kts | 107° |
| 2026-04-19 04:05 | 0.96769 | 104.13618 | 34875 ft | 483 kts | 125° |
| 2026-04-19 04:06 | 0.92207 | 104.18471 | 34875 ft | 482 kts | 142° |
| 2026-04-19 04:06 | 0.86511 | 104.21981 | 34877 ft | 482 kts | 146° |
| 2026-04-19 04:07 | 0.81612 | 104.26502 | 34876 ft | 483 kts | 128° |
| 2026-04-19 04:07 | 0.78348 | 104.32303 | 34875 ft | 483 kts | 110° |
| 2026-04-19 04:08 | 0.77028 | 104.38853 | 34875 ft | 483 kts | 92° |
| 2026-04-19 04:08 | 0.77796 | 104.45489 | 34875 ft | 484 kts | 74° |
| 2026-04-19 04:09 | 0.80575 | 104.51569 | 34875 ft | 484 kts | 56° |
| 2026-04-19 04:09 | 0.85089 | 104.56498 | 34875 ft | 485 kts | 38° |
| 2026-04-19 04:10 | 0.90917 | 104.59814 | 34875 ft | 485 kts | 20° |
| 2026-04-19 04:10 | 0.97488 | 104.61182 | 34875 ft | 485 kts | 2° |
| 2026-04-19 04:11 | 1.04156 | 104.60474 | 34875 ft | 486 kts | 345° |
| 2026-04-19 04:11 | 1.10306 | 104.57749 | 34875 ft | 486 kts | 327° |
| 2026-04-19 04:12 | 1.15314 | 104.53281 | 34875 ft | 486 kts | 309° |
| 2026-04-19 04:12 | 1.18714 | 104.47488 | 34875 ft | 486 kts | 291° |
| 2026-04-19 04:13 | 1.20171 | 104.40940 | 34875 ft | 486 kts | 273° |
| 2026-04-19 04:13 | 1.19549 | 104.34266 | 34875 ft | 485 kts | 255° |
| 2026-04-19 04:14 | 1.16911 | 104.28116 | 34875 ft | 485 kts | 237° |
| 2026-04-19 04:14 | 1.14892 | 104.25427 | 34869 ft | 484 kts | 226° |
| 2026-04-19 04:14 | 1.12301 | 104.23312 | 34836 ft | 484 kts | 210° |
| 2026-04-19 04:15 | 1.09237 | 104.21981 | 34807 ft | 483 kts | 194° |
| 2026-04-19 04:15 | 1.05924 | 104.21525 | 34718 ft | 483 kts | 178° |
| 2026-04-19 04:15 | 1.02620 | 104.22011 | 34819 ft | 482 kts | 162° |
| 2026-04-19 04:15 | 0.99520 | 104.23255 | 34891 ft | 483 kts | 156° |
| 2026-04-19 04:16 | 0.93640 | 104.26398 | 34939 ft | 482 kts | 142° |
| 2026-04-19 04:16 | 0.91260 | 104.28740 | 34874 ft | 483 kts | 127° |
| 2026-04-19 04:16 | 0.89527 | 104.31601 | 34778 ft | 484 kts | 115° |
| 2026-04-19 04:17 | 0.87185 | 104.37878 | 34869 ft | 483 kts | 105° |
| 2026-04-19 04:17 | 0.85746 | 104.44409 | 34877 ft | 483 kts | 101° |
| 2026-04-19 04:18 | 0.84505 | 104.51002 | 34875 ft | 483 kts | 100° |
| 2026-04-19 04:18 | 0.83298 | 104.57594 | 34875 ft | 483 kts | 101° |
| 2026-04-19 04:19 | 0.82058 | 104.64162 | 34874 ft | 483 kts | 101° |
| 2026-04-19 04:19 | 0.80802 | 104.70744 | 34875 ft | 483 kts | 101° |
| 2026-04-19 04:20 | 0.79548 | 104.77287 | 34875 ft | 483 kts | 101° |
| 2026-04-19 04:20 | 0.78276 | 104.83912 | 34874 ft | 483 kts | 101° |
| 2026-04-19 04:21 | 0.77037 | 104.90483 | 34874 ft | 483 kts | 101° |
| 2026-04-19 04:21 | 0.75782 | 104.97078 | 34875 ft | 483 kts | 101° |
| 2026-04-19 04:22 | 0.74539 | 105.03640 | 34873 ft | 483 kts | 101° |
| 2026-04-19 04:22 | 0.73293 | 105.10245 | 34875 ft | 483 kts | 101° |
| 2026-04-19 04:23 | 0.72092 | 105.16823 | 34875 ft | 483 kts | 101° |
| 2026-04-19 04:23 | 0.70849 | 105.23418 | 34875 ft | 483 kts | 101° |
| 2026-04-19 04:24 | 0.69589 | 105.29986 | 34873 ft | 483 kts | 101° |
| 2026-04-19 04:24 | 0.68316 | 105.36575 | 34879 ft | 484 kts | 101° |
| 2026-04-19 04:25 | 0.67045 | 105.43140 | 34874 ft | 483 kts | 101° |
| 2026-04-19 04:25 | 0.65802 | 105.49702 | 34875 ft | 483 kts | 101° |
| 2026-04-19 04:26 | 0.64540 | 105.56318 | 34875 ft | 483 kts | 101° |
| 2026-04-19 04:26 | 0.63295 | 105.62899 | 34874 ft | 483 kts | 101° |
| 2026-04-19 04:27 | 0.62046 | 105.69479 | 34875 ft | 483 kts | 101° |
| 2026-04-19 04:27 | 0.60799 | 105.76043 | 34875 ft | 483 kts | 101° |
| 2026-04-19 04:28 | 0.59547 | 105.82643 | 34875 ft | 483 kts | 101° |
| 2026-04-19 04:28 | 0.58336 | 105.89219 | 34874 ft | 483 kts | 101° |
| 2026-04-19 04:29 | 0.57096 | 105.95778 | 34875 ft | 483 kts | 101° |
| 2026-04-19 04:29 | 0.55820 | 106.02390 | 34875 ft | 483 kts | 101° |
| 2026-04-19 04:30 | 0.54543 | 106.08961 | 34874 ft | 483 kts | 101° |
| 2026-04-19 04:30 | 0.53304 | 106.15535 | 34874 ft | 483 kts | 101° |
| 2026-04-19 04:31 | 0.52045 | 106.22117 | 34875 ft | 483 kts | 101° |
| 2026-04-19 04:31 | 0.50796 | 106.28697 | 34875 ft | 483 kts | 101° |
| 2026-04-19 04:32 | 0.49548 | 106.35273 | 34875 ft | 483 kts | 101° |
| 2026-04-19 04:32 | 0.48302 | 106.41842 | 34875 ft | 483 kts | 101° |
| 2026-04-19 04:33 | 0.47047 | 106.48451 | 34875 ft | 483 kts | 101° |
| 2026-04-19 04:33 | 0.45800 | 106.55019 | 34875 ft | 483 kts | 101° |
| 2026-04-19 04:34 | 0.44570 | 106.61603 | 34875 ft | 483 kts | 100° |
| 2026-04-19 04:34 | 0.43328 | 106.68199 | 34875 ft | 483 kts | 101° |
| 2026-04-19 04:35 | 0.42057 | 106.74765 | 34875 ft | 483 kts | 101° |
| 2026-04-19 04:35 | 0.40792 | 106.81342 | 34875 ft | 483 kts | 101° |
| 2026-04-19 04:36 | 0.39548 | 106.87910 | 34875 ft | 483 kts | 101° |
| 2026-04-19 04:36 | 0.38295 | 106.94511 | 34882 ft | 483 kts | 101° |
| 2026-04-19 04:37 | 0.37042 | 107.01077 | 34888 ft | 482 kts | 101° |
| 2026-04-19 04:37 | 0.35822 | 107.07636 | 34882 ft | 483 kts | 100° |
| 2026-04-19 04:38 | 0.34599 | 107.14211 | 34890 ft | 486 kts | 100° |
| 2026-04-19 04:38 | 0.33332 | 107.20863 | 34895 ft | 486 kts | 100° |
| 2026-04-19 04:39 | 0.32080 | 107.27478 | 34896 ft | 486 kts | 100° |
| 2026-04-19 04:39 | 0.30802 | 107.34080 | 34896 ft | 486 kts | 101° |
| 2026-04-19 04:40 | 0.29502 | 107.40692 | 34897 ft | 486 kts | 100° |
| 2026-04-19 04:40 | 0.28454 | 107.46183 | 34897 ft | 486 kts | 100° |
| 2026-04-19 04:41 | 0.27202 | 107.52809 | 34898 ft | 486 kts | 100° |
| 2026-04-19 04:41 | 0.25963 | 107.59394 | 34898 ft | 486 kts | 100° |
| 2026-04-19 04:42 | 0.24715 | 107.66025 | 34898 ft | 486 kts | 100° |
| 2026-04-19 04:42 | 0.23468 | 107.72652 | 34899 ft | 486 kts | 100° |
| 2026-04-19 04:43 | 0.22222 | 107.79268 | 34900 ft | 486 kts | 100° |
| 2026-04-19 04:43 | 0.20978 | 107.85871 | 34902 ft | 486 kts | 100° |
| 2026-04-19 04:44 | 0.19717 | 107.92485 | 34903 ft | 486 kts | 100° |
| 2026-04-19 04:44 | 0.18462 | 107.99098 | 34903 ft | 486 kts | 100° |
| 2026-04-19 04:45 | 0.17202 | 108.05690 | 34903 ft | 486 kts | 101° |
| 2026-04-19 04:45 | 0.15885 | 108.12311 | 34903 ft | 486 kts | 101° |
| 2026-04-19 04:46 | 0.14608 | 108.18915 | 34904 ft | 486 kts | 100° |
| 2026-04-19 04:46 | 0.13346 | 108.25541 | 34904 ft | 486 kts | 100° |
| 2026-04-19 04:47 | 0.12091 | 108.32157 | 34903 ft | 486 kts | 100° |
| 2026-04-19 04:47 | 0.10838 | 108.38770 | 34906 ft | 486 kts | 100° |
| 2026-04-19 04:48 | 0.09584 | 108.45382 | 34903 ft | 485 kts | 100° |
| 2026-04-19 04:48 | 0.08334 | 108.51971 | 34904 ft | 486 kts | 100° |
| 2026-04-19 04:49 | 0.07077 | 108.58596 | 34903 ft | 486 kts | 100° |
| 2026-04-19 04:49 | 0.05819 | 108.65221 | 34904 ft | 486 kts | 100° |
| 2026-04-19 04:50 | 0.04564 | 108.71824 | 34904 ft | 486 kts | 100° |
| 2026-04-19 04:50 | 0.03305 | 108.78446 | 34903 ft | 486 kts | 100° |
| 2026-04-19 04:51 | 0.02058 | 108.85059 | 34903 ft | 486 kts | 100° |
| 2026-04-19 04:51 | 0.00812 | 108.91662 | 34904 ft | 486 kts | 100° |
| 2026-04-19 04:52 | -0.00446 | 108.98281 | 34903 ft | 486 kts | 100° |
| 2026-04-19 04:52 | -0.01706 | 109.04900 | 34903 ft | 486 kts | 100° |
| 2026-04-19 04:53 | -0.02967 | 109.11511 | 34903 ft | 486 kts | 100° |
| 2026-04-19 04:53 | -0.04226 | 109.18110 | 34904 ft | 486 kts | 100° |
| 2026-04-19 04:54 | -0.05487 | 109.24710 | 34904 ft | 486 kts | 100° |
| 2026-04-19 04:54 | -0.06698 | 109.31346 | 34904 ft | 486 kts | 99° |
| 2026-04-19 04:55 | -0.07724 | 109.37996 | 34904 ft | 486 kts | 98° |
| 2026-04-19 04:55 | -0.08698 | 109.44648 | 34904 ft | 486 kts | 98° |
| 2026-04-19 04:56 | -0.09712 | 109.51304 | 34904 ft | 486 kts | 98° |
| 2026-04-19 04:56 | -0.10742 | 109.57958 | 34904 ft | 486 kts | 98° |
| 2026-04-19 04:57 | -0.11779 | 109.64617 | 34904 ft | 486 kts | 98° |
| 2026-04-19 04:57 | -0.12812 | 109.71244 | 34903 ft | 486 kts | 98° |
| 2026-04-19 04:58 | -0.13854 | 109.77917 | 34902 ft | 486 kts | 98° |
| 2026-04-19 04:58 | -0.14891 | 109.84554 | 34903 ft | 486 kts | 98° |
| 2026-04-19 04:59 | -0.15933 | 109.91213 | 34903 ft | 486 kts | 98° |
| 2026-04-19 04:59 | -0.16974 | 109.97860 | 34900 ft | 486 kts | 98° |
| 2026-04-19 05:00 | -0.18050 | 110.04478 | 34899 ft | 486 kts | 99° |
| 2026-04-19 05:00 | -0.19116 | 110.11135 | 34899 ft | 486 kts | 98° |
| 2026-04-19 05:01 | -0.20166 | 110.17781 | 34897 ft | 486 kts | 98° |
| 2026-04-19 05:01 | -0.21216 | 110.24447 | 34895 ft | 486 kts | 98° |
| 2026-04-19 05:02 | -0.22256 | 110.31099 | 34896 ft | 486 kts | 98° |
| 2026-04-19 05:02 | -0.23295 | 110.37749 | 34895 ft | 486 kts | 98° |
| 2026-04-19 05:03 | -0.24334 | 110.44386 | 34893 ft | 486 kts | 98° |
| 2026-04-19 05:03 | -0.25377 | 110.51051 | 34892 ft | 486 kts | 98° |
| 2026-04-19 05:04 | -0.26394 | 110.57679 | 34893 ft | 483 kts | 98° |
| 2026-04-19 05:04 | -0.27411 | 110.64273 | 34892 ft | 482 kts | 98° |
| 2026-04-19 05:05 | -0.28459 | 110.70879 | 34891 ft | 482 kts | 98° |
| 2026-04-19 05:05 | -0.29464 | 110.77499 | 34890 ft | 482 kts | 98° |
| 2026-04-19 05:06 | -0.30495 | 110.84104 | 34891 ft | 482 kts | 98° |
| 2026-04-19 05:06 | -0.31547 | 110.90694 | 34889 ft | 482 kts | 98° |
| 2026-04-19 05:07 | -0.32586 | 110.97295 | 34888 ft | 482 kts | 98° |
| 2026-04-19 05:07 | -0.33620 | 111.03910 | 34889 ft | 482 kts | 98° |
| 2026-04-19 05:08 | -0.35167 | 111.13792 | 34887 ft | 482 kts | 98° |
| 2026-04-19 05:09 | -0.36201 | 111.20409 | 34886 ft | 482 kts | 98° |
| 2026-04-19 05:09 | -0.37235 | 111.27029 | 34891 ft | 483 kts | 98° |
| 2026-04-19 05:10 | -0.38264 | 111.33615 | 34885 ft | 482 kts | 98° |
| 2026-04-19 05:10 | -0.39300 | 111.40240 | 34885 ft | 482 kts | 98° |
| 2026-04-19 05:11 | -0.40320 | 111.46845 | 34885 ft | 482 kts | 98° |
| 2026-04-19 05:11 | -0.41346 | 111.53437 | 34885 ft | 482 kts | 98° |
| 2026-04-19 05:12 | -0.42399 | 111.60043 | 34884 ft | 482 kts | 98° |
| 2026-04-19 05:12 | -0.43423 | 111.66655 | 34884 ft | 482 kts | 98° |
| 2026-04-19 05:13 | -0.44458 | 111.73271 | 34884 ft | 482 kts | 98° |
| 2026-04-19 05:13 | -0.45486 | 111.79843 | 34884 ft | 482 kts | 98° |
| 2026-04-19 05:14 | -0.46522 | 111.86473 | 34883 ft | 482 kts | 98° |
| 2026-04-19 05:14 | -0.47555 | 111.93079 | 34883 ft | 482 kts | 98° |
| 2026-04-19 05:15 | -0.48587 | 111.99683 | 34884 ft | 482 kts | 98° |
| 2026-04-19 05:15 | -0.49615 | 112.06274 | 34884 ft | 483 kts | 98° |
| 2026-04-19 05:16 | -0.50652 | 112.12913 | 34884 ft | 483 kts | 98° |
| 2026-04-19 05:16 | -0.51685 | 112.19525 | 34884 ft | 483 kts | 98° |
| 2026-04-19 05:17 | -0.52708 | 112.26126 | 34884 ft | 483 kts | 98° |
| 2026-04-19 05:17 | -0.53724 | 112.32738 | 34893 ft | 483 kts | 98° |
| 2026-04-19 05:18 | -0.54744 | 112.39362 | 34895 ft | 483 kts | 98° |
| 2026-04-19 05:18 | -0.55763 | 112.45977 | 34895 ft | 483 kts | 98° |
| 2026-04-19 05:19 | -0.56776 | 112.52563 | 34901 ft | 483 kts | 98° |
| 2026-04-19 05:19 | -0.57798 | 112.59200 | 34903 ft | 482 kts | 98° |
| 2026-04-19 05:20 | -0.58814 | 112.65797 | 34904 ft | 483 kts | 98° |
| 2026-04-19 05:20 | -0.59832 | 112.72409 | 34904 ft | 483 kts | 98° |
| 2026-04-19 05:21 | -0.60827 | 112.79028 | 34904 ft | 483 kts | 97° |
| 2026-04-19 05:21 | -0.61732 | 112.85655 | 34904 ft | 483 kts | 97° |
| 2026-04-19 05:22 | -0.62601 | 112.92277 | 34904 ft | 483 kts | 97° |
| 2026-04-19 05:22 | -0.63461 | 112.98899 | 34904 ft | 483 kts | 97° |
| 2026-04-19 05:23 | -0.64321 | 113.05547 | 34904 ft | 483 kts | 97° |
| 2026-04-19 05:23 | -0.65180 | 113.12181 | 34903 ft | 482 kts | 97° |
| 2026-04-19 05:24 | -0.66050 | 113.18795 | 34903 ft | 477 kts | 97° |
| 2026-04-19 05:24 | -0.66936 | 113.25349 | 34904 ft | 478 kts | 97° |
| 2026-04-19 05:25 | -0.67830 | 113.31932 | 34904 ft | 478 kts | 97° |
| 2026-04-19 05:25 | -0.68690 | 113.38493 | 34904 ft | 478 kts | 97° |
| 2026-04-19 05:26 | -0.69572 | 113.45057 | 34904 ft | 478 kts | 97° |
| 2026-04-19 05:26 | -0.70484 | 113.51628 | 34904 ft | 478 kts | 97° |
| 2026-04-19 05:27 | -0.71363 | 113.58196 | 34904 ft | 478 kts | 97° |
| 2026-04-19 05:27 | -0.72221 | 113.64769 | 34904 ft | 478 kts | 97° |
| 2026-04-19 05:28 | -0.73074 | 113.71350 | 34904 ft | 478 kts | 97° |
| 2026-04-19 05:28 | -0.73951 | 113.77909 | 34904 ft | 478 kts | 97° |
| 2026-04-19 05:29 | -0.74820 | 113.84475 | 34904 ft | 478 kts | 97° |
| 2026-04-19 05:29 | -0.75694 | 113.91023 | 34904 ft | 478 kts | 97° |
| 2026-04-19 05:30 | -0.76573 | 113.97612 | 34904 ft | 478 kts | 97° |
| 2026-04-19 05:30 | -0.77448 | 114.04181 | 34904 ft | 478 kts | 97° |
| 2026-04-19 05:31 | -0.78325 | 114.10759 | 34904 ft | 478 kts | 97° |
| 2026-04-19 05:31 | -0.79200 | 114.17328 | 34904 ft | 478 kts | 97° |
| 2026-04-19 05:32 | -0.80107 | 114.23868 | 34904 ft | 478 kts | 97° |
| 2026-04-19 05:32 | -0.81009 | 114.30451 | 34904 ft | 478 kts | 97° |
| 2026-04-19 05:33 | -0.81876 | 114.37010 | 34904 ft | 478 kts | 97° |
| 2026-04-19 05:33 | -0.82736 | 114.43577 | 34904 ft | 478 kts | 97° |
| 2026-04-19 05:34 | -0.83594 | 114.50139 | 34904 ft | 478 kts | 97° |
| 2026-04-19 05:34 | -0.84454 | 114.56722 | 34904 ft | 478 kts | 97° |
| 2026-04-19 05:35 | -0.85310 | 114.63264 | 34904 ft | 478 kts | 97° |
| 2026-04-19 05:35 | -0.86189 | 114.69843 | 34904 ft | 478 kts | 97° |
| 2026-04-19 05:36 | -0.87062 | 114.76409 | 34904 ft | 478 kts | 97° |
| 2026-04-19 05:36 | -0.87931 | 114.82948 | 34900 ft | 467 kts | 97° |
| 2026-04-19 05:36 | -0.88349 | 114.86106 | 34435 ft | 457 kts | 97° |
| 2026-04-19 05:37 | -0.88765 | 114.89232 | 33814 ft | 450 kts | 97° |
| 2026-04-19 05:37 | -0.89174 | 114.92304 | 33209 ft | 444 kts | 97° |
| 2026-04-19 05:37 | -0.89588 | 114.95326 | 32618 ft | 437 kts | 97° |
| 2026-04-19 05:37 | -0.90016 | 114.98311 | 32037 ft | 431 kts | 97° |
| 2026-04-19 05:38 | -0.90435 | 115.01255 | 31457 ft | 425 kts | 97° |
| 2026-04-19 05:38 | -0.90832 | 115.04147 | 30892 ft | 420 kts | 97° |
| 2026-04-19 05:38 | -0.91222 | 115.07032 | 30339 ft | 419 kts | 97° |
| 2026-04-19 05:38 | -0.91604 | 115.09892 | 29792 ft | 416 kts | 97° |
| 2026-04-19 05:39 | -0.91984 | 115.12755 | 29231 ft | 412 kts | 97° |
| 2026-04-19 05:39 | -0.92359 | 115.15578 | 28689 ft | 409 kts | 97° |
| 2026-04-19 05:39 | -0.92729 | 115.18377 | 28141 ft | 405 kts | 97° |
| 2026-04-19 05:39 | -0.93095 | 115.21138 | 27609 ft | 401 kts | 97° |
| 2026-04-19 05:40 | -0.93461 | 115.23892 | 27081 ft | 398 kts | 97° |
| 2026-04-19 05:40 | -0.93821 | 115.26616 | 26557 ft | 398 kts | 96° |
| 2026-04-19 05:40 | -0.94175 | 115.29346 | 26034 ft | 396 kts | 97° |
| 2026-04-19 05:40 | -0.94535 | 115.32053 | 25510 ft | 393 kts | 97° |
| 2026-04-19 05:41 | -0.94897 | 115.34740 | 24985 ft | 389 kts | 97° |
| 2026-04-19 05:41 | -0.95245 | 115.37399 | 24463 ft | 386 kts | 96° |
| 2026-04-19 05:41 | -0.95594 | 115.40034 | 23958 ft | 382 kts | 97° |
| 2026-04-19 05:41 | -0.95947 | 115.42663 | 23455 ft | 379 kts | 97° |
| 2026-04-19 05:42 | -0.96288 | 115.45261 | 22956 ft | 377 kts | 96° |
| 2026-04-19 05:42 | -0.96633 | 115.47839 | 22457 ft | 374 kts | 97° |
| 2026-04-19 05:42 | -0.96973 | 115.50397 | 21958 ft | 371 kts | 96° |
| 2026-04-19 05:42 | -0.97307 | 115.52926 | 21460 ft | 368 kts | 97° |
| 2026-04-19 05:43 | -0.97643 | 115.55434 | 20977 ft | 365 kts | 97° |
| 2026-04-19 05:43 | -0.97976 | 115.57945 | 20499 ft | 361 kts | 97° |
| 2026-04-19 05:43 | -0.98295 | 115.60416 | 20024 ft | 358 kts | 97° |
| 2026-04-19 05:43 | -0.98612 | 115.62856 | 19547 ft | 353 kts | 98° |
| 2026-04-19 05:44 | -0.99045 | 115.65235 | 19086 ft | 347 kts | 102° |
| 2026-04-19 05:44 | -0.99583 | 115.67572 | 18951 ft | 351 kts | 104° |
| 2026-04-19 05:44 | -1.00182 | 115.69955 | 18916 ft | 356 kts | 104° |
| 2026-04-19 05:44 | -1.00806 | 115.72350 | 18908 ft | 358 kts | 104° |
| 2026-04-19 05:45 | -1.01441 | 115.74749 | 18905 ft | 358 kts | 105° |
| 2026-04-19 05:45 | -1.02072 | 115.77150 | 18905 ft | 358 kts | 104° |
| 2026-04-19 05:45 | -1.02683 | 115.79543 | 18904 ft | 356 kts | 104° |
| 2026-04-19 05:45 | -1.03274 | 115.81888 | 18895 ft | 341 kts | 104° |
| 2026-04-19 05:46 | -1.03847 | 115.84178 | 18899 ft | 339 kts | 104° |
| 2026-04-19 05:46 | -1.04417 | 115.86460 | 18778 ft | 340 kts | 104° |
| 2026-04-19 05:46 | -1.04988 | 115.88749 | 18282 ft | 338 kts | 104° |
| 2026-04-19 05:46 | -1.05543 | 115.91013 | 17784 ft | 335 kts | 103° |
| 2026-04-19 05:47 | -1.06085 | 115.93267 | 17292 ft | 333 kts | 103° |
| 2026-04-19 05:47 | -1.06617 | 115.95492 | 16819 ft | 330 kts | 103° |
| 2026-04-19 05:47 | -1.07150 | 115.97706 | 16344 ft | 327 kts | 103° |
| 2026-04-19 05:47 | -1.07676 | 115.99889 | 16078 ft | 318 kts | 103° |
| 2026-04-19 05:48 | -1.08188 | 116.02008 | 16010 ft | 318 kts | 103° |
| 2026-04-19 05:48 | -1.08726 | 116.04238 | 16020 ft | 342 kts | 103° |
| 2026-04-19 05:48 | -1.09289 | 116.06575 | 16011 ft | 349 kts | 103° |
| 2026-04-19 05:48 | -1.09854 | 116.08921 | 16003 ft | 350 kts | 103° |
| 2026-04-19 05:49 | -1.10431 | 116.11274 | 16000 ft | 349 kts | 103° |
| 2026-04-19 05:49 | -1.11026 | 116.13627 | 16000 ft | 349 kts | 104° |
| 2026-04-19 05:49 | -1.11601 | 116.15923 | 15870 ft | 337 kts | 103° |
| 2026-04-19 05:49 | -1.12156 | 116.18179 | 15357 ft | 334 kts | 103° |
| 2026-04-19 05:50 | -1.12702 | 116.20425 | 14874 ft | 331 kts | 103° |
| 2026-04-19 05:50 | -1.13240 | 116.22644 | 14388 ft | 328 kts | 104° |
| 2026-04-19 05:50 | -1.13778 | 116.24843 | 13904 ft | 323 kts | 104° |
| 2026-04-19 05:50 | -1.14304 | 116.26991 | 13448 ft | 321 kts | 104° |
| 2026-04-19 05:51 | -1.14834 | 116.29151 | 13104 ft | 315 kts | 104° |
| 2026-04-19 05:51 | -1.15357 | 116.31281 | 13033 ft | 327 kts | 104° |
| 2026-04-19 05:51 | -1.15910 | 116.33528 | 13013 ft | 336 kts | 104° |
| 2026-04-19 05:51 | -1.16579 | 116.35736 | 12992 ft | 329 kts | 111° |
| 2026-04-19 05:52 | -1.17597 | 116.37746 | 12566 ft | 324 kts | 124° |
| 2026-04-19 05:52 | -1.19017 | 116.39474 | 12096 ft | 321 kts | 136° |
| 2026-04-19 05:52 | -1.20722 | 116.40881 | 11642 ft | 320 kts | 146° |
| 2026-04-19 05:52 | -1.22620 | 116.42036 | 11160 ft | 318 kts | 153° |
| 2026-04-19 05:53 | -1.24590 | 116.42985 | 10702 ft | 315 kts | 158° |
| 2026-04-19 05:53 | -1.26624 | 116.43761 | 10256 ft | 312 kts | 162° |
| 2026-04-19 05:53 | -1.28537 | 116.44742 | 9794 ft | 307 kts | 143° |
| 2026-04-19 05:53 | -1.29821 | 116.46310 | 9358 ft | 285 kts | 119° |
| 2026-04-19 05:54 | -1.30553 | 116.48098 | 9003 ft | 273 kts | 110° |
| 2026-04-19 05:54 | -1.31028 | 116.49878 | 8643 ft | 261 kts | 104° |
| 2026-04-19 05:54 | -1.31385 | 116.51644 | 8321 ft | 258 kts | 102° |
| 2026-04-19 05:54 | -1.31703 | 116.53426 | 7679 ft | 263 kts | 102° |
| 2026-04-19 05:55 | -1.32023 | 116.55210 | 6852 ft | 261 kts | 102° |
| 2026-04-19 05:55 | -1.32344 | 116.56990 | 5985 ft | 261 kts | 102° |
| 2026-04-19 05:55 | -1.32663 | 116.58709 | 5100 ft | 244 kts | 103° |
| 2026-04-19 05:55 | -1.32976 | 116.60332 | 4250 ft | 232 kts | 103° |
| 2026-04-19 05:56 | -1.33277 | 116.61876 | 3373 ft | 224 kts | 102° |
| 2026-04-19 05:56 | -1.33569 | 116.63383 | 2507 ft | 219 kts | 102° |
| 2026-04-19 05:56 | -1.33843 | 116.64791 | 2282 ft | 194 kts | 102° |
| 2026-04-19 05:56 | -1.34100 | 116.66089 | 2523 ft | 192 kts | 102° |
| 2026-04-19 05:57 | -1.34355 | 116.67398 | 2494 ft | 192 kts | 102° |
| 2026-04-19 05:57 | -1.34574 | 116.68710 | 2488 ft | 193 kts | 95° |
| 2026-04-19 05:57 | -1.34359 | 116.70017 | 2593 ft | 188 kts | 78° |
| 2026-04-19 05:57 | -1.34087 | 116.71296 | 2457 ft | 186 kts | 78° |
| 2026-04-19 05:58 | -1.33698 | 116.72502 | 2257 ft | 181 kts | 69° |
| 2026-04-19 05:58 | -1.33234 | 116.73650 | 2092 ft | 178 kts | 68° |
| 2026-04-19 05:58 | -1.32760 | 116.74801 | 2022 ft | 179 kts | 68° |
| 2026-04-19 05:58 | -1.32286 | 116.75950 | 2008 ft | 181 kts | 68° |
| 2026-04-19 05:59 | -1.31822 | 116.77118 | 1999 ft | 181 kts | 71° |
| 2026-04-19 05:59 | -1.31704 | 116.78354 | 1986 ft | 180 kts | 93° |
| 2026-04-19 05:59 | -1.31834 | 116.79604 | 1890 ft | 181 kts | 97° |
| 2026-04-19 05:59 | -1.31988 | 116.80835 | 1759 ft | 179 kts | 98° |
| 2026-04-19 06:00 | -1.32146 | 116.82072 | 1635 ft | 179 kts | 98° |
| 2026-04-19 06:00 | -1.32228 | 116.83308 | 1501 ft | 179 kts | 86° |
| 2026-04-19 06:00 | -1.31932 | 116.84499 | 1536 ft | 178 kts | 73° |
| 2026-04-19 06:00 | -1.31533 | 116.85678 | 1507 ft | 179 kts | 71° |
| 2026-04-19 06:01 | -1.31122 | 116.86848 | 1501 ft | 180 kts | 71° |
| 2026-04-19 06:01 | -1.30707 | 116.88021 | 1498 ft | 179 kts | 71° |
| 2026-04-19 06:01 | -1.30292 | 116.89198 | 1501 ft | 179 kts | 71° |
| 2026-04-19 06:01 | -1.29881 | 116.90364 | 1503 ft | 180 kts | 71° |
| 2026-04-19 06:02 | -1.29465 | 116.91537 | 1496 ft | 179 kts | 70° |
| 2026-04-19 06:02 | -1.29029 | 116.92647 | 1494 ft | 163 kts | 68° |
| 2026-04-19 06:02 | -1.28643 | 116.93646 | 1469 ft | 148 kts | 70° |
| 2026-04-19 06:02 | -1.28283 | 116.94606 | 1491 ft | 148 kts | 70° |
| 2026-04-19 06:03 | -1.27921 | 116.95575 | 1499 ft | 152 kts | 70° |
| 2026-04-19 06:03 | -1.27512 | 116.96556 | 1214 ft | 153 kts | 62° |
| 2026-04-19 06:03 | -1.26780 | 116.97264 | 994 ft | 147 kts | 30° |
| 2026-04-19 06:03 | -1.25800 | 116.97412 | 1023 ft | 145 kts | 351° |
| 2026-04-19 06:04 | -1.24981 | 116.96854 | 1027 ft | 147 kts | 304° |
| 2026-04-19 06:04 | -1.24808 | 116.95870 | 978 ft | 143 kts | 270° |
| 2026-04-19 06:04 | -1.24901 | 116.94874 | 873 ft | 147 kts | 261° |
| 2026-04-19 06:04 | -1.25151 | 116.93903 | 615 ft | 143 kts | 251° |
| 2026-04-19 06:05 | -1.25427 | 116.92961 | 404 ft | 141 kts | 255° |
| 2026-04-19 06:05 | -1.25738 | 116.92042 | 337 ft | 141 kts | 248° |
| 2026-04-19 06:05 | -1.26121 | 116.91137 | 192 ft | 142 kts | 246° |
| 2026-04-19 06:05 | -1.26496 | 116.90231 | 33 ft | 137 kts | 246° |
| 2026-04-19 06:06 | -1.26777 | 116.89571 | 24 ft | 64 kts | 247° |
| 2026-04-19 06:06 | -1.26933 | 116.89198 | 24 ft | 43 kts | 246° |
| 2026-04-19 06:06 | -1.26996 | 116.89022 | 24 ft | 16 kts | 284° |
| 2026-04-19 06:06 | -1.26944 | 116.88979 | 24 ft | 9 kts | 338° |
| 2026-04-19 06:07 | -1.26881 | 116.88968 | 24 ft | 9 kts | 27° |
| 2026-04-19 06:07 | -1.26842 | 116.89026 | 24 ft | 11 kts | 62° |
| 2026-04-19 06:07 | -1.26809 | 116.89105 | 24 ft | 13 kts | 66° |
| 2026-04-19 06:07 | -1.26771 | 116.89196 | 24 ft | 15 kts | 68° |
| 2026-04-19 06:08 | -1.26729 | 116.89298 | 24 ft | 17 kts | 67° |
| 2026-04-19 06:08 | -1.26682 | 116.89410 | 24 ft | 18 kts | 68° |
| 2026-04-19 06:08 | -1.26631 | 116.89530 | 24 ft | 19 kts | 66° |
| 2026-04-19 06:08 | -1.26578 | 116.89658 | 24 ft | 20 kts | 68° |
| 2026-04-19 06:09 | -1.26503 | 116.89741 | 24 ft | 16 kts | 347° |
| 2026-04-19 06:09 | -1.26438 | 116.89785 | 24 ft | 10 kts | 69° |
| 2026-04-19 06:09 | -1.26413 | 116.89844 | 24 ft | 10 kts | 67° |
| 2026-04-19 06:09 | -1.26367 | 116.89882 | 24 ft | 7 kts | 342° |
| 2026-04-19 06:10 | -1.26335 | 116.89868 | 24 ft | 0 kts | 337° |